createdAt,value
2022-08-01T06:13:48.520Z,1006.95
2022-08-01T06:23:36.527Z,1007.12
2022-08-01T06:33:36.402Z,1007.06
2022-08-01T06:43:36.351Z,1007.18
2022-08-01T06:53:36.724Z,1007.27
2022-08-01T07:03:54.337Z,1007.39
2022-08-01T07:13:36.625Z,1007.40
2022-08-01T07:23:36.610Z,1007.41
2022-08-01T07:33:48.990Z,1007.70
2022-08-01T07:43:36.503Z,1007.90
2022-08-01T07:53:36.468Z,1008.04
2022-08-01T08:03:36.375Z,1008.23
2022-08-01T08:13:36.445Z,1008.37
2022-08-01T08:23:43.222Z,1008.43
2022-08-01T08:33:36.566Z,1008.27
2022-08-01T08:43:36.543Z,1008.49
2022-08-01T08:53:36.598Z,1008.72
2022-08-01T09:03:36.500Z,1008.87
2022-08-01T09:13:36.633Z,1008.99
2022-08-01T09:23:36.518Z,1009.10
2022-08-01T09:33:37.044Z,1009.31
2022-08-01T09:43:36.407Z,1009.42
2022-08-01T09:53:38.024Z,1009.61
2022-08-01T10:03:36.685Z,1009.72
2022-08-01T10:13:36.970Z,1009.80
2022-08-01T10:23:40.141Z,1009.80
2022-08-01T10:33:51.062Z,1009.71
2022-08-01T10:43:36.635Z,1009.77
2022-08-01T10:53:42.706Z,1009.65
2022-08-01T11:03:56.069Z,1009.71
2022-08-01T11:13:36.446Z,1009.73
2022-08-01T11:23:36.618Z,1009.80
2022-08-01T11:33:36.614Z,1009.83
2022-08-01T11:43:36.582Z,1009.98
2022-08-01T11:53:36.724Z,1009.95
2022-08-01T12:03:36.627Z,1009.91
2022-08-01T12:13:36.636Z,1010.03
2022-08-01T12:23:36.580Z,1010.00
2022-08-01T12:33:36.687Z,1009.90
2022-08-01T12:43:36.613Z,1009.98
2022-08-01T12:53:41.046Z,1009.92
2022-08-01T13:03:36.671Z,1009.80
2022-08-01T13:13:36.762Z,1009.83
2022-08-01T13:24:01.404Z,1009.96
2022-08-01T13:33:36.729Z,1010.00
2022-08-01T13:43:58.540Z,1009.99
2022-08-01T13:53:36.642Z,1010.01
2022-08-01T14:03:36.784Z,1009.99
2022-08-01T14:13:37.059Z,1009.93
2022-08-01T14:23:36.623Z,1009.97
2022-08-01T14:33:36.783Z,1009.95
2022-08-01T14:43:36.758Z,1010.10
2022-08-01T14:53:36.828Z,1009.96
2022-08-01T15:03:37.004Z,1010.00
2022-08-01T15:13:40.561Z,1009.91
2022-08-01T15:23:37.038Z,1010.02
2022-08-01T15:33:37.103Z,1010.05
2022-08-01T15:43:41.563Z,1010.16
2022-08-01T15:53:37.091Z,1010.18
2022-08-01T16:03:37.079Z,1010.17
2022-08-01T16:13:36.980Z,1010.06
2022-08-01T16:23:37.210Z,1010.14
2022-08-01T16:33:45.598Z,1010.15
2022-08-01T16:43:36.943Z,1010.10
2022-08-01T16:53:37.207Z,1010.18
2022-08-01T17:03:51.568Z,1010.26
2022-08-01T17:13:37.139Z,1010.23
2022-08-01T17:23:37.054Z,1010.19
2022-08-01T17:33:45.063Z,1010.20
2022-08-01T17:43:36.931Z,1010.29
2022-08-01T17:53:37.038Z,1010.27
2022-08-01T18:03:40.964Z,1010.38
2022-08-01T18:13:40.948Z,1010.33
2022-08-01T18:23:37.013Z,1010.34
2022-08-01T18:33:37.163Z,1010.52
2022-08-01T18:43:37.026Z,1010.47
2022-08-01T18:53:37.193Z,1010.62
2022-08-01T19:03:42.266Z,1010.66
2022-08-01T19:13:37.322Z,1010.84
